KIPL

Imperial County Airport

Imperial, California, USA
METAR KIPL 161453Z AUTO 24003KT 10SM CLR 08/M04 A3001 RMK AO2 SLP162 T00831039 53007
Observed Flight Rules
Nov-16 @ 14:53 UTC (an hour ago) Visual Flight Rules
Wind Visibility Clouds
240° at 3 knots 10 miles
  • Clear skies
Temperatures Readings
Current 8°C / 46°F
Dewpoint -4°C / 25°F
Humidity 43%
Altimeter 30.01" Hg
Pressure 1016.2 hPa
Elevation -17
METAR KIPL 161453Z AUTO 24003KT 10SM CLR 08/M04 A3001 RMK AO2 SLP162 T00831039 53007
Observed Flight Rules
Nov-16 @ 14:53 UTC
(an hour ago)
VFR
Wind Visibility
240° at 3 knots 10 miles
Clouds
  • Clear skies
Temperature Dewpoint
8°C / 46°F -4°C / 25°F
Humidity Altimeter Pressure
43% 30.01" Hg 1016.2 hPa